Time;durP1;ratioP1;P1;durP2;ratioP2;P2;SDS_P1;SDS_P2;PMS_P1;PMS_P2;Temp;Humidity;BMP_temperature;BMP_pressure;BME280_temperature;BME280_humidity;BME280_pressure;Samples;Min_cycle;Max_cycle;Signal;HPM_P1;HPM_P2
2023/05/26 00:02:19;;;;;;;8.27;7.40;;;13.90;99.90;;;;;;5051641;28;20192;-69
2023/05/26 00:04:44;;;;;;;7.97;6.60;;;13.90;99.90;;;;;;5051979;28;20253;-69
2023/05/26 00:07:10;;;;;;;12.40;6.80;;;13.90;99.90;;;;;;5051809;28;20446;-69
2023/05/26 00:09:36;;;;;;;8.90;7.40;;;13.80;99.90;;;;;;5051421;28;20173;-69
2023/05/26 00:12:01;;;;;;;7.60;6.43;;;13.80;99.90;;;;;;5051567;28;20249;-68
2023/05/26 00:14:27;;;;;;;8.20;7.40;;;13.80;99.90;;;;;;5051689;28;20174;-69
2023/05/26 00:16:53;;;;;;;8.80;7.10;;;13.70;99.90;;;;;;5051440;28;20670;-69
2023/05/26 00:19:21;;;;;;;8.70;7.60;;;13.70;99.90;;;;;;5051602;28;20304;-69
2023/05/26 00:21:46;;;;;;;7.40;6.70;;;13.60;99.90;;;;;;5051513;28;20546;-69
2023/05/26 00:24:12;;;;;;;9.90;7.40;;;13.60;99.90;;;;;;5051552;28;20867;-69
2023/05/26 00:26:37;;;;;;;8.10;6.70;;;13.60;99.90;;;;;;5051517;28;20170;-69
2023/05/26 00:29:03;;;;;;;7.63;6.93;;;13.60;99.90;;;;;;5051149;28;20740;-69
2023/05/26 00:31:29;;;;;;;8.13;7.33;;;13.60;99.90;;;;;;5033499;28;20184;-69
2023/05/26 00:33:55;;;;;;;9.10;6.90;;;13.60;99.90;;;;;;5051344;28;20185;-69
2023/05/26 00:36:20;;;;;;;6.80;6.20;;;13.60;99.90;;;;;;5051333;28;20470;-69
2023/05/26 00:38:46;;;;;;;6.63;6.03;;;13.70;99.90;;;;;;5054280;28;20214;-69
2023/05/26 00:41:11;;;;;;;8.60;6.60;;;13.60;99.90;;;;;;5055145;28;20197;-69
2023/05/26 00:43:37;;;;;;;9.77;7.00;;;13.70;99.90;;;;;;5054994;28;20200;-69
2023/05/26 00:46:02;;;;;;;11.00;7.77;;;13.60;99.90;;;;;;5054998;28;20169;-69
2023/05/26 00:48:28;;;;;;;9.40;7.60;;;13.70;99.90;;;;;;5054765;28;20574;-69
2023/05/26 00:50:54;;;;;;;7.57;6.13;;;13.80;99.90;;;;;;5055040;28;20257;-69
2023/05/26 00:53:19;;;;;;;8.30;6.87;;;13.80;99.90;;;;;;5054785;28;20564;-69
2023/05/26 00:55:49;;;;;;;8.10;7.23;;;13.90;99.90;;;;;;5055013;28;20272;-69
2023/05/26 00:58:15;;;;;;;8.40;7.60;;;14.00;99.90;;;;;;5054633;28;20173;-69
2023/05/26 01:00:41;;;;;;;7.67;6.90;;;14.00;99.90;;;;;;5054618;28;20455;-69
2023/05/26 01:03:07;;;;;;;11.50;7.40;;;14.10;99.90;;;;;;5054878;28;20197;-69
2023/05/26 01:05:33;;;;;;;7.93;6.73;;;14.20;99.90;;;;;;5054802;28;20609;-70
2023/05/26 01:07:59;;;;;;;11.20;7.13;;;14.30;99.90;;;;;;5054652;28;20491;-69
2023/05/26 01:10:27;;;;;;;7.83;6.17;;;14.40;99.90;;;;;;5054422;28;20507;-69
2023/05/26 01:13:01;;;;;;;8.60;7.70;;;14.40;99.90;;;;;;5054391;28;20829;-69
2023/05/26 01:15:34;;;;;;;7.30;6.60;;;14.40;99.90;;;;;;5054507;28;20415;-69
2023/05/26 01:18:13;;;;;;;11.20;8.10;;;14.40;99.90;;;;;;5054499;28;20416;-69
2023/05/26 01:20:46;;;;;;;7.60;6.90;;;14.50;99.90;;;;;;5054427;28;20984;-69
2023/05/26 01:23:33;;;;;;;8.20;7.00;;;14.50;99.90;;;;;;5054341;28;20454;-69
2023/05/26 01:26:31;;;;;;;9.93;7.73;;;14.40;99.90;;;;;;5054412;28;20423;-69
2023/05/26 01:29:14;;;;;;;7.63;7.03;;;14.40;99.90;;;;;;5054038;28;20409;-69
2023/05/26 01:31:40;;;;;;;7.63;6.83;;;14.40;99.90;;;;;;5054263;28;20458;-69
2023/05/26 01:34:07;;;;;;;10.00;8.10;;;14.40;99.90;;;;;;5054035;28;20497;-69
2023/05/26 01:36:35;;;;;;;7.77;7.07;;;14.40;99.90;;;;;;5054372;28;20474;-69
2023/05/26 01:39:01;;;;;;;7.10;6.40;;;14.40;99.90;;;;;;5053818;28;20941;-69
2023/05/26 01:41:46;;;;;;;9.70;7.57;;;14.30;99.90;;;;;;5054033;28;20451;-69
2023/05/26 01:44:26;;;;;;;8.70;6.30;;;14.20;99.90;;;;;;5053854;28;20525;-69
2023/05/26 01:46:52;;;;;;;10.43;7.07;;;14.30;99.90;;;;;;5054009;28;20418;-69
2023/05/26 01:49:22;;;;;;;9.93;7.90;;;14.30;99.90;;;;;;5052376;28;20412;-69
2023/05/26 01:51:51;;;;;;;8.83;8.00;;;14.30;99.90;;;;;;5053850;28;20174;-69
2023/05/26 01:54:20;;;;;;;10.07;7.50;;;14.30;99.90;;;;;;5053829;28;20501;-69
2023/05/26 01:56:46;;;;;;;7.83;6.90;;;14.30;99.90;;;;;;5053807;28;21117;-69
2023/05/26 01:59:13;;;;;;;9.20;7.67;;;14.20;99.90;;;;;;5053574;28;20430;-69
2023/05/26 02:01:38;;;;;;;13.13;8.53;;;14.20;99.90;;;;;;5053821;28;20466;-69
2023/05/26 02:04:04;;;;;;;9.00;7.40;;;14.20;99.90;;;;;;5054009;28;20826;-69
2023/05/26 02:06:30;;;;;;;8.50;7.60;;;14.10;99.90;;;;;;5053620;28;20166;-69
2023/05/26 02:08:55;;;;;;;10.87;8.50;;;14.10;99.90;;;;;;5053201;28;20193;-69
2023/05/26 02:11:21;;;;;;;10.37;7.83;;;14.10;99.90;;;;;;5053443;28;20180;-69
2023/05/26 02:13:46;;;;;;;7.97;7.27;;;14.10;99.90;;;;;;5053247;28;20682;-69
2023/05/26 02:16:13;;;;;;;10.10;9.10;;;14.10;99.90;;;;;;5053418;28;20279;-69
2023/05/26 02:18:39;;;;;;;10.33;7.33;;;14.10;99.90;;;;;;5052991;28;20197;-69
2023/05/26 02:21:05;;;;;;;11.10;8.00;;;14.10;99.90;;;;;;5053191;28;20463;-69
2023/05/26 02:23:30;;;;;;;9.60;7.67;;;14.00;99.90;;;;;;5053184;28;20430;-69
2023/05/26 02:25:55;;;;;;;9.00;7.67;;;14.10;99.90;;;;;;5053112;28;20269;-69
2023/05/26 02:28:21;;;;;;;8.60;7.70;;;14.00;99.90;;;;;;5053117;28;20174;-69
2023/05/26 02:30:46;;;;;;;9.13;8.23;;;14.10;99.90;;;;;;5053082;28;20541;-69
2023/05/26 02:33:12;;;;;;;8.43;6.90;;;14.10;99.90;;;;;;5052966;28;20193;-69
2023/05/26 02:35:38;;;;;;;8.10;7.30;;;14.10;99.90;;;;;;5053108;28;20181;-69
2023/05/26 02:38:03;;;;;;;8.07;7.30;;;14.10;99.90;;;;;;5052949;28;20424;-69
2023/05/26 02:40:29;;;;;;;9.60;8.70;;;14.10;99.90;;;;;;5052531;28;20197;-70
2023/05/26 02:42:54;;;;;;;8.73;7.83;;;14.10;99.90;;;;;;5052693;28;20204;-69
2023/05/26 02:45:20;;;;;;;9.53;8.10;;;14.10;99.90;;;;;;5053084;28;20170;-69
2023/05/26 02:47:46;;;;;;;9.87;7.93;;;14.10;99.90;;;;;;5052806;28;20173;-70
2023/05/26 02:50:12;;;;;;;11.50;7.30;;;14.10;99.90;;;;;;5052518;28;20174;-69
2023/05/26 02:52:37;;;;;;;8.57;7.80;;;14.10;99.90;;;;;;5052727;28;20307;-69
2023/05/26 02:55:03;;;;;;;17.70;8.13;;;14.00;99.90;;;;;;5052555;28;20416;-69
2023/05/26 02:57:29;;;;;;;10.50;8.10;;;14.10;99.90;;;;;;5052480;28;20268;-69
2023/05/26 02:59:54;;;;;;;10.83;8.90;;;14.10;99.90;;;;;;5051982;28;20503;-70
2023/05/26 03:02:20;;;;;;;7.97;7.20;;;14.10;99.90;;;;;;5052465;28;20671;-69
2023/05/26 03:04:46;;;;;;;8.07;7.37;;;14.20;99.90;;;;;;5052534;28;20172;-70
2023/05/26 03:07:11;;;;;;;9.40;8.20;;;14.20;99.90;;;;;;5052479;28;20172;-70
2023/05/26 03:09:38;;;;;;;9.27;8.37;;;14.10;99.90;;;;;;5052048;28;20185;-69
2023/05/26 03:12:05;;;;;;;9.07;7.40;;;14.10;99.90;;;;;;5052048;28;20169;-70
2023/05/26 03:14:30;;;;;;;8.63;7.80;;;14.10;99.90;;;;;;5052337;28;20432;-70
2023/05/26 03:16:56;;;;;;;12.43;9.30;;;14.20;99.90;;;;;;5052239;28;20905;-69
2023/05/26 03:19:22;;;;;;;8.60;7.73;;;14.10;99.90;;;;;;5052007;28;20162;-69
2023/05/26 03:21:47;;;;;;;10.07;7.57;;;14.10;99.90;;;;;;5052069;28;20259;-70
2023/05/26 03:24:13;;;;;;;9.33;8.40;;;14.00;99.90;;;;;;5051900;28;20196;-70
2023/05/26 03:26:38;;;;;;;9.30;8.40;;;14.00;99.90;;;;;;5052008;28;20623;-69
2023/05/26 03:29:03;;;;;;;9.23;7.40;;;14.00;99.90;;;;;;5051780;28;20173;-69
2023/05/26 03:31:29;;;;;;;9.17;8.23;;;14.00;99.90;;;;;;5051965;28;20174;-69
2023/05/26 03:33:54;;;;;;;8.53;7.70;;;13.90;99.90;;;;;;5051940;28;20752;-69
2023/05/26 03:36:20;;;;;;;9.20;8.30;;;13.90;99.90;;;;;;5051946;28;20227;-70
2023/05/26 03:38:46;;;;;;;14.80;10.20;;;13.90;99.90;;;;;;5051624;28;20169;-69
2023/05/26 03:41:11;;;;;;;9.97;8.30;;;13.70;99.90;;;;;;5051645;28;20678;-69
2023/05/26 03:43:37;;;;;;;11.10;8.40;;;13.70;99.90;;;;;;5051875;28;20194;-70
2023/05/26 03:46:02;;;;;;;9.50;8.47;;;13.50;99.90;;;;;;5051925;28;20170;-69
2023/05/26 03:48:28;;;;;;;12.53;8.60;;;13.50;99.90;;;;;;5051651;28;20184;-69
2023/05/26 03:50:54;;;;;;;9.63;8.27;;;13.60;99.90;;;;;;5051924;28;20626;-70
2023/05/26 03:53:19;;;;;;;10.00;8.60;;;13.60;99.90;;;;;;5051709;28;20494;-69
2023/05/26 03:55:45;;;;;;;9.13;8.13;;;13.60;99.90;;;;;;5051810;28;20368;-70
2023/05/26 03:58:12;;;;;;;11.00;7.60;;;13.50;99.90;;;;;;5051564;28;20189;-70
2023/05/26 04:00:37;;;;;;;9.80;8.10;;;13.50;99.90;;;;;;5051743;28;20678;-69
2023/05/26 04:03:03;;;;;;;9.93;8.90;;;13.50;99.90;;;;;;5051621;28;20443;-69
2023/05/26 04:05:29;;;;;;;8.50;7.60;;;13.50;99.90;;;;;;5051692;28;20173;-70
2023/05/26 04:07:54;;;;;;;9.57;8.57;;;13.40;99.90;;;;;;5051641;28;20166;-69
2023/05/26 04:10:20;;;;;;;10.70;7.80;;;13.40;99.90;;;;;;5051354;28;20663;-69
2023/05/26 04:12:45;;;;;;;9.30;7.73;;;13.40;99.90;;;;;;5053254;28;20236;-69
2023/05/26 04:15:11;;;;;;;9.80;8.50;;;13.40;99.90;;;;;;5055830;28;20197;-69
2023/05/26 04:17:37;;;;;;;9.30;8.40;;;13.30;99.90;;;;;;5055649;28;20239;-69
2023/05/26 04:20:10;;;;;;;11.50;8.73;;;13.30;99.90;;;;;;5055170;28;20255;-69
2023/05/26 04:22:36;;;;;;;12.00;10.07;;;13.30;99.90;;;;;;5055434;28;20463;-69
2023/05/26 04:25:01;;;;;;;11.17;8.43;;;13.40;99.90;;;;;;5055343;28;20925;-69
2023/05/26 04:27:27;;;;;;;12.70;8.30;;;13.40;99.90;;;;;;5055443;28;20641;-70
2023/05/26 04:29:53;;;;;;;10.83;9.73;;;13.60;99.90;;;;;;5055079;28;20169;-70
2023/05/26 04:32:21;;;;;;;11.47;8.13;;;13.70;99.90;;;;;;5055275;28;20700;-69
2023/05/26 04:34:48;;;;;;;10.97;9.77;;;13.70;99.90;;;;;;5055268;28;20279;-70
2023/05/26 04:37:14;;;;;;;13.00;9.43;;;13.70;99.90;;;;;;5055261;28;20412;-69
2023/05/26 04:39:40;;;;;;;11.53;10.17;;;13.70;99.90;;;;;;5055086;28;20415;-70
2023/05/26 04:42:06;;;;;;;10.27;9.37;;;13.80;99.90;;;;;;5055120;28;20176;-70
2023/05/26 04:44:32;;;;;;;11.50;8.73;;;14.00;99.90;;;;;;5055120;28;20423;-69
2023/05/26 04:47:00;;;;;;;8.60;7.80;;;14.00;99.90;;;;;;5055141;28;20247;-69
2023/05/26 04:49:27;;;;;;;9.13;8.23;;;14.10;99.90;;;;;;5054801;28;20435;-69
2023/05/26 04:51:56;;;;;;;9.97;8.10;;;14.40;99.90;;;;;;5054994;28;20503;-69
2023/05/26 04:54:22;;;;;;;11.73;9.30;;;14.40;99.90;;;;;;5055087;28;20852;-69
2023/05/26 04:56:47;;;;;;;9.33;8.03;;;14.50;99.90;;;;;;5054838;28;20436;-69
2023/05/26 04:59:13;;;;;;;11.07;8.67;;;14.50;99.90;;;;;;5054556;28;20424;-69
2023/05/26 05:01:39;;;;;;;14.10;9.00;;;14.60;99.90;;;;;;5054732;28;20205;-69
2023/05/26 05:04:05;;;;;;;13.33;8.97;;;14.60;99.90;;;;;;5054508;28;20208;-69
2023/05/26 05:06:31;;;;;;;10.27;8.87;;;14.80;99.90;;;;;;5054653;28;20220;-69
2023/05/26 05:08:56;;;;;;;12.50;9.17;;;14.80;99.90;;;;;;5036348;28;20428;-70
2023/05/26 05:11:22;;;;;;;9.30;8.40;;;15.00;99.90;;;;;;5054589;28;20524;-70
2023/05/26 05:13:47;;;;;;;13.30;9.33;;;15.20;99.90;;;;;;5054801;28;20224;-70
2023/05/26 05:16:13;;;;;;;10.00;8.33;;;15.40;99.90;;;;;;5036634;28;20186;-69
2023/05/26 05:18:38;;;;;;;11.33;9.47;;;15.60;99.90;;;;;;5053730;28;20181;-69
2023/05/26 05:21:04;;;;;;;12.80;9.53;;;15.80;99.90;;;;;;5054345;28;20298;-69
2023/05/26 05:23:34;;;;;;;15.03;9.07;;;15.90;99.90;;;;;;5054119;28;20193;-70
2023/05/26 05:25:59;;;;;;;10.90;9.03;;;15.80;99.90;;;;;;5054535;28;20182;-69
2023/05/26 05:28:25;;;;;;;10.43;9.27;;;15.90;99.90;;;;;;5054053;28;20419;-70
2023/05/26 05:30:51;;;;;;;10.83;9.67;;;16.00;99.90;;;;;;5054292;28;20170;-69
2023/05/26 05:33:16;;;;;;;14.80;10.27;;;16.10;99.90;;;;;;5054177;28;20674;-70
2023/05/26 05:35:42;;;;;;;12.10;8.63;;;16.30;99.90;;;;;;5054222;28;20208;-69
2023/05/26 05:38:07;;;;;;;12.17;9.80;;;16.50;99.90;;;;;;5053988;28;20227;-70
2023/05/26 05:40:33;;;;;;;11.70;9.37;;;16.60;99.90;;;;;;5053750;28;20206;-69
2023/05/26 05:43:00;;;;;;;10.20;9.03;;;16.70;99.90;;;;;;5053974;28;20357;-70
2023/05/26 05:45:26;;;;;;;12.60;9.20;;;16.80;99.90;;;;;;5053915;28;20416;-69
2023/05/26 05:47:52;;;;;;;9.97;8.97;;;16.90;99.90;;;;;;5053748;28;20424;-70
2023/05/26 05:50:18;;;;;;;13.90;9.33;;;17.00;99.90;;;;;;5053590;28;20431;-70
2023/05/26 05:52:43;;;;;;;11.57;10.47;;;17.10;99.90;;;;;;5053766;28;20250;-70
2023/05/26 05:55:10;;;;;;;15.83;9.17;;;17.10;99.90;;;;;;5053873;28;20178;-70
2023/05/26 05:57:35;;;;;;;10.47;9.47;;;17.20;99.90;;;;;;5053640;28;20182;-70
2023/05/26 06:00:02;;;;;;;16.10;10.50;;;17.30;99.90;;;;;;5053372;28;20442;-70
2023/05/26 06:02:27;;;;;;;11.30;9.93;;;17.30;99.90;;;;;;5053665;28;20217;-69
2023/05/26 06:04:53;;;;;;;8.60;7.67;;;17.40;99.90;;;;;;5053550;28;20539;-70
2023/05/26 06:07:18;;;;;;;10.37;9.23;;;17.50;99.90;;;;;;5053774;28;20556;-70
2023/05/26 06:09:44;;;;;;;11.10;9.50;;;17.60;99.90;;;;;;5053199;28;20208;-70
2023/05/26 06:12:10;;;;;;;11.83;9.93;;;17.50;99.90;;;;;;5053373;28;20720;-70
2023/05/26 06:14:35;;;;;;;15.83;11.63;;;17.60;99.90;;;;;;5053433;28;20170;-69
2023/05/26 06:17:01;;;;;;;11.77;9.60;;;17.70;99.90;;;;;;5053350;28;20173;-69
2023/05/26 06:19:26;;;;;;;12.10;10.33;;;17.80;99.90;;;;;;5053017;28;20189;-70
2023/05/26 06:21:52;;;;;;;11.70;10.23;;;17.90;99.90;;;;;;5053101;28;20216;-69
2023/05/26 06:24:17;;;;;;;12.20;10.50;;;17.90;99.90;;;;;;5053235;28;20533;-70
2023/05/26 06:26:43;;;;;;;10.33;9.33;;;18.00;99.90;;;;;;5053100;28;20184;-69
2023/05/26 06:29:08;;;;;;;14.83;9.37;;;18.10;99.90;;;;;;5052559;28;20178;-70
2023/05/26 06:31:34;;;;;;;16.13;10.50;;;18.20;99.90;;;;;;5052776;28;20526;-69
2023/05/26 06:33:59;;;;;;;11.37;9.07;;;18.20;99.90;;;;;;5052903;28;20277;-69
2023/05/26 06:36:25;;;;;;;11.03;9.80;;;18.30;99.90;;;;;;5045486;28;20169;-70
2023/05/26 06:38:50;;;;;;;12.90;9.90;;;18.30;99.90;;;;;;5051209;28;20178;-69
2023/05/26 06:41:16;;;;;;;11.37;9.97;;;18.30;99.90;;;;;;5051381;28;20205;-69
2023/05/26 06:43:41;;;;;;;11.83;10.17;;;18.40;99.90;;;;;;5052474;28;20193;-69
2023/05/26 06:46:07;;;;;;;10.73;9.63;;;18.40;99.90;;;;;;5052619;28;20577;-70
2023/05/26 06:48:32;;;;;;;11.00;9.90;;;18.40;99.90;;;;;;5052286;28;20178;-71
2023/05/26 06:50:58;;;;;;;12.00;10.87;;;18.60;99.90;;;;;;5052569;28;20185;-69
2023/05/26 06:53:23;;;;;;;11.83;10.10;;;18.60;99.90;;;;;;5052523;28;20636;-70
2023/05/26 06:55:49;;;;;;;19.73;11.07;;;18.70;99.90;;;;;;5051737;28;20205;-69
2023/05/26 06:58:14;;;;;;;11.90;10.67;;;18.80;99.90;;;;;;5051622;28;20181;-69
2023/05/26 07:00:58;;;;;;;11.37;9.93;;;18.90;99.90;;;;;;5052094;28;20599;-70
2023/05/26 07:03:25;;;;;;;15.27;10.73;;;19.00;99.90;;;;;;5052271;28;20190;-69
2023/05/26 07:05:50;;;;;;;11.93;10.73;;;19.10;99.90;;;;;;5052562;28;20503;-70
2023/05/26 07:08:16;;;;;;;10.67;9.67;;;19.30;99.90;;;;;;5052177;28;20440;-69
2023/05/26 07:10:41;;;;;;;14.80;9.90;;;19.30;99.90;;;;;;5052353;28;20173;-69
2023/05/26 07:13:07;;;;;;;11.03;9.90;;;19.40;99.90;;;;;;5052431;28;20584;-71
2023/05/26 07:15:32;;;;;;;10.63;9.60;;;19.50;99.90;;;;;;5052045;28;20169;-70
2023/05/26 07:17:58;;;;;;;9.83;8.90;;;19.60;99.90;;;;;;5052178;28;20268;-70
2023/05/26 07:20:23;;;;;;;11.00;9.77;;;19.70;99.90;;;;;;5051600;28;20205;-70
2023/05/26 07:22:49;;;;;;;10.27;9.33;;;19.80;99.90;;;;;;5051959;28;20193;-70
2023/05/26 07:25:14;;;;;;;14.33;10.50;;;19.80;99.90;;;;;;5052221;28;20170;-70
2023/05/26 07:27:40;;;;;;;11.60;9.90;;;19.80;99.90;;;;;;5052085;28;20643;-70
2023/05/26 07:30:06;;;;;;;12.43;9.83;;;19.90;99.90;;;;;;5051696;28;20184;-70
2023/05/26 07:32:31;;;;;;;10.10;9.20;;;19.90;99.90;;;;;;5052130;28;20194;-70
2023/05/26 07:34:57;;;;;;;16.73;10.20;;;19.90;99.90;;;;;;5052123;28;20420;-70
2023/05/26 07:37:22;;;;;;;11.20;9.63;;;19.90;99.90;;;;;;5052090;28;20559;-70
2023/05/26 07:39:48;;;;;;;15.00;9.50;;;20.10;99.90;;;;;;5050842;28;20599;-70
2023/05/26 07:42:13;;;;;;;12.80;9.70;;;20.40;99.90;;;;;;5051698;28;20184;-70
2023/05/26 07:44:39;;;;;;;14.27;10.00;;;20.60;99.90;;;;;;5051881;28;20527;-70
2023/05/26 07:47:05;;;;;;;11.37;9.20;;;20.70;99.90;;;;;;5051725;28;20181;-69
2023/05/26 07:49:30;;;;;;;10.90;9.13;;;20.80;99.90;;;;;;5051510;28;20192;-70
2023/05/26 07:51:56;;;;;;;11.50;10.40;;;20.80;99.90;;;;;;5051955;28;20188;-69
2023/05/26 07:54:21;;;;;;;11.40;10.30;;;20.90;99.90;;;;;;5051649;28;20318;-70
2023/05/26 07:56:47;;;;;;;11.27;9.97;;;20.90;99.90;;;;;;5051752;28;20170;-70
2023/05/26 07:59:12;;;;;;;10.83;9.70;;;20.90;99.90;;;;;;5051407;28;20668;-70
2023/05/26 08:01:38;;;;;;;13.37;10.20;;;21.00;99.90;;;;;;5051364;28;20292;-70
2023/05/26 08:04:03;;;;;;;10.40;9.30;;;21.10;99.80;;;;;;5051589;28;20286;-70
2023/05/26 08:06:29;;;;;;;13.00;9.77;;;21.30;99.50;;;;;;5051629;28;20158;-70
2023/05/26 08:08:55;;;;;;;9.97;8.93;;;21.00;99.90;;;;;;5051354;28;20541;-69
2023/05/26 08:11:22;;;;;;;12.87;9.97;;;21.10;99.90;;;;;;5051436;28;20424;-70
2023/05/26 08:13:48;;;;;;;11.43;9.90;;;21.10;99.90;;;;;;5051342;28;20201;-70
2023/05/26 08:16:15;;;;;;;13.53;9.70;;;21.20;99.80;;;;;;5051544;28;20428;-69
2023/05/26 08:18:41;;;;;;;14.63;10.47;;;21.40;98.90;;;;;;5051437;28;20564;-70
2023/05/26 08:21:07;;;;;;;12.50;8.83;;;21.50;98.80;;;;;;5051205;28;20459;-70
2023/05/26 08:23:32;;;;;;;14.17;9.10;;;21.70;98.80;;;;;;5051423;28;20186;-69
2023/05/26 08:25:58;;;;;;;12.47;9.27;;;21.90;98.20;;;;;;5051604;28;20227;-69
2023/05/26 08:28:24;;;;;;;12.77;8.60;;;21.90;97.60;;;;;;5051125;28;20174;-70
2023/05/26 08:30:50;;;;;;;10.67;9.67;;;22.00;97.80;;;;;;5051117;28;20235;-70
2023/05/26 08:33:15;;;;;;;11.47;10.10;;;22.10;97.10;;;;;;5051343;28;20182;-69
2023/05/26 08:35:41;;;;;;;10.87;8.90;;;22.10;95.90;;;;;;5051462;28;20201;-70
2023/05/26 08:38:06;;;;;;;17.20;10.60;;;22.10;96.10;;;;;;5051198;28;20260;-70
2023/05/26 08:40:33;;;;;;;11.30;10.13;;;22.20;95.90;;;;;;5050416;28;20273;-69
2023/05/26 08:43:03;;;;;;;13.07;9.27;;;22.30;95.40;;;;;;5051082;28;20202;-70
2023/05/26 08:45:28;;;;;;;11.20;9.47;;;22.30;95.00;;;;;;5051080;28;20944;-70
2023/05/26 08:47:57;;;;;;;11.50;10.40;;;22.40;95.80;;;;;;5051141;28;20450;-69
2023/05/26 08:50:24;;;;;;;18.20;9.70;;;22.50;95.00;;;;;;5050997;28;20172;-69
2023/05/26 08:52:51;;;;;;;9.27;8.37;;;22.60;94.20;;;;;;5051054;28;20440;-71
2023/05/26 08:55:17;;;;;;;10.80;8.90;;;22.80;93.60;;;;;;5051175;28;20827;-70
2023/05/26 08:57:43;;;;;;;9.90;8.87;;;22.70;94.00;;;;;;5051053;28;20412;-70
2023/05/26 09:00:12;;;;;;;10.50;9.50;;;22.90;93.50;;;;;;5054101;28;20454;-70
2023/05/26 09:02:37;;;;;;;9.93;8.90;;;23.00;93.40;;;;;;5054622;28;20193;-70
2023/05/26 09:05:04;;;;;;;16.17;9.43;;;23.00;93.30;;;;;;5054576;28;20427;-70
2023/05/26 09:07:29;;;;;;;10.30;9.20;;;23.10;93.20;;;;;;5054635;28;20166;-70
2023/05/26 09:10:21;;;;;;;9.83;9.03;;;23.10;92.50;;;;;;5054057;28;20431;-72
2023/05/26 09:12:48;;;;;;;10.43;9.43;;;23.50;92.60;;;;;;5053649;28;20252;-69
2023/05/26 09:15:19;;;;;;;9.80;8.83;;;23.70;91.00;;;;;;5054501;28;20473;-69
2023/05/26 09:17:45;;;;;;;9.77;8.87;;;23.70;90.70;;;;;;5054431;28;20408;-69
2023/05/26 09:20:11;;;;;;;9.50;8.60;;;23.80;90.70;;;;;;5053791;28;20960;-69
2023/05/26 09:22:38;;;;;;;14.80;10.80;;;23.90;89.80;;;;;;5054182;28;20201;-70
2023/05/26 09:25:03;;;;;;;11.90;10.70;;;24.10;89.30;;;;;;5054322;28;20178;-70
2023/05/26 09:27:29;;;;;;;10.80;8.70;;;24.30;89.60;;;;;;5054492;28;20427;-69
2023/05/26 09:30:00;;;;;;;10.87;9.27;;;24.70;88.80;;;;;;5053792;28;20166;-69
2023/05/26 09:32:29;;;;;;;11.20;9.60;;;24.70;87.70;;;;;;5054150;28;20194;-70
2023/05/26 09:35:03;;;;;;;10.80;9.70;;;25.00;84.10;;;;;;5036276;28;20908;-70
2023/05/26 09:37:32;;;;;;;16.50;9.07;;;25.40;82.00;;;;;;5053655;28;20431;-70
2023/05/26 09:40:12;;;;;;;11.83;8.67;;;25.80;81.70;;;;;;5053640;28;20416;-70
2023/05/26 09:42:45;;;;;;;12.37;9.27;;;26.10;79.50;;;;;;5035718;28;20542;-69
2023/05/26 09:45:10;;;;;;;9.90;8.87;;;26.50;79.40;;;;;;5054045;28;20404;-71
2023/05/26 09:47:36;;;;;;;15.53;9.90;;;27.00;75.00;;;;;;5053736;28;20420;-70
2023/05/26 09:50:05;;;;;;;12.70;9.40;;;27.40;73.20;;;;;;5053599;28;20170;-70
2023/05/26 09:52:35;;;;;;;14.03;10.90;;;27.40;73.30;;;;;;5053606;28;20478;-70
2023/05/26 09:55:00;;;;;;;8.47;7.53;;;28.20;73.60;;;;;;5053838;28;20788;-71
2023/05/26 09:57:28;;;;;;;11.97;9.57;;;28.90;68.00;;;;;;5053715;28;20420;-71
2023/05/26 09:59:56;;;;;;;12.80;9.47;;;29.00;65.00;;;;;;5053224;28;20554;-70
2023/05/26 10:02:25;;;;;;;9.53;8.47;;;29.40;63.10;;;;;;5053425;28;20436;-70
2023/05/26 10:04:52;;;;;;;10.70;9.47;;;30.00;60.90;;;;;;5053639;28;20503;-70
2023/05/26 10:07:19;;;;;;;9.43;8.40;;;30.40;58.20;;;;;;5053464;28;20412;-70
2023/05/26 10:09:57;;;;;;;12.60;10.37;;;30.80;56.40;;;;;;5034266;28;20482;-70
2023/05/26 10:12:31;;;;;;;8.87;7.97;;;30.80;55.40;;;;;;5052993;28;20498;-70
2023/05/26 10:14:57;;;;;;;10.27;8.43;;;31.20;53.60;;;;;;5053653;28;20451;-70
2023/05/26 10:17:23;;;;;;;10.40;8.70;;;31.50;54.00;;;;;;5053035;28;20505;-71
2023/05/26 10:19:50;;;;;;;9.53;8.53;;;31.40;52.80;;;;;;5052904;28;20165;-70
2023/05/26 10:22:29;;;;;;;11.33;9.27;;;31.40;51.40;;;;;;5052845;28;20582;-72
2023/05/26 10:25:01;;;;;;;9.70;8.20;;;31.40;51.60;;;;;;5053107;28;20978;-71
2023/05/26 10:27:39;;;;;;;9.63;8.73;;;32.50;51.50;;;;;;5053109;28;20420;-70
2023/05/26 10:30:11;;;;;;;9.90;8.70;;;32.30;50.40;;;;;;5052925;28;20780;-71
2023/05/26 10:32:50;;;;;;;9.30;8.40;;;33.20;48.80;;;;;;5047069;28;20557;-71
2023/05/26 10:35:33;;;;;;;9.63;8.80;;;34.30;47.20;;;;;;5049709;28;20955;-71
2023/05/26 10:38:11;;;;;;;9.23;8.43;;;34.50;45.90;;;;;;5047005;28;20427;-70
2023/05/26 10:40:50;;;;;;;13.23;8.83;;;34.70;45.30;;;;;;5044742;28;20493;-71
2023/05/26 10:43:26;;;;;;;9.13;8.33;;;34.80;43.10;;;;;;5050411;28;20451;-70
2023/05/26 10:45:55;;;;;;;10.10;8.80;;;35.00;43.50;;;;;;5050120;28;20448;-72
2023/05/26 10:48:24;;;;;;;11.57;9.60;;;34.60;44.10;;;;;;5049310;28;20454;-71
2023/05/26 10:50:59;;;;;;;9.80;8.90;;;35.00;43.80;;;;;;5051125;28;20459;-69
2023/05/26 10:53:30;;;;;;;11.80;9.37;;;34.10;44.00;;;;;;5052537;28;20454;-68
2023/05/26 10:56:03;;;;;;;8.80;7.90;;;35.30;44.20;;;;;;5051378;28;20454;-71
2023/05/26 10:58:29;;;;;;;8.53;7.83;;;36.80;44.20;;;;;;5051769;28;21282;-71
2023/05/26 11:01:16;;;;;;;9.77;8.77;;;37.70;40.00;;;;;;5051589;28;20464;-70
2023/05/26 11:03:55;;;;;;;9.60;8.80;;;37.00;40.60;;;;;;5032470;28;20198;-71
2023/05/26 11:06:50;;;;;;;8.73;7.93;;;37.10;38.80;;;;;;5060603;28;20452;-70
2023/05/26 11:09:19;;;;;;;12.63;8.30;;;37.70;38.70;;;;;;5051383;28;20436;-70
2023/05/26 11:11:59;;;;;;;16.23;8.87;;;37.60;38.30;;;;;;5051885;28;20863;-70
2023/05/26 11:14:25;;;;;;;15.20;8.80;;;38.50;36.80;;;;;;5050500;28;20988;-71
2023/05/26 11:16:55;;;;;;;10.20;9.20;;;38.30;36.90;;;;;;5047628;28;20951;-70
2023/05/26 11:19:56;;;;;;;11.23;8.57;;;38.30;36.70;;;;;;5046062;28;20478;-70
2023/05/26 11:22:22;;;;;;;10.27;9.27;;;37.80;37.40;;;;;;5053838;28;20862;-71
2023/05/26 11:24:52;;;;;;;8.67;7.80;;;37.50;37.10;;;;;;5051766;28;20441;-69
2023/05/26 11:27:18;;;;;;;15.73;9.90;;;38.80;38.50;;;;;;5055693;28;20490;-69
2023/05/26 11:29:46;;;;;;;9.10;8.33;;;37.10;38.60;;;;;;5050694;28;20436;-63
2023/05/26 11:32:13;;;;;;;11.90;8.10;;;37.40;36.90;;;;;;5051676;28;20239;-64
2023/05/26 11:34:38;;;;;;;8.50;7.80;;;38.00;35.90;;;;;;5057358;28;20444;-71
2023/05/26 11:37:07;;;;;;;9.57;8.80;;;37.50;36.00;;;;;;5049103;28;20454;-70
2023/05/26 11:39:34;;;;;;;7.83;7.07;;;37.50;35.70;;;;;;5044494;28;20201;-65
2023/05/26 11:42:10;;;;;;;10.10;8.07;;;37.90;36.40;;;;;;5051492;28;20456;-64
2023/05/26 11:44:35;;;;;;;9.87;8.80;;;36.80;37.20;;;;;;5051954;28;20453;-65
2023/05/26 11:47:01;;;;;;;8.90;8.00;;;36.90;37.20;;;;;;5050839;28;20463;-65
2023/05/26 11:49:26;;;;;;;8.03;7.20;;;36.40;36.90;;;;;;5051283;28;20188;-64
2023/05/26 11:51:52;;;;;;;10.53;8.13;;;37.50;36.90;;;;;;5051740;28;20506;-65
2023/05/26 11:54:19;;;;;;;8.53;7.73;;;38.50;34.70;;;;;;5051660;28;20236;-64
2023/05/26 11:56:46;;;;;;;9.13;8.23;;;39.60;33.70;;;;;;5051516;28;20631;-64
2023/05/26 11:59:20;;;;;;;9.13;7.70;;;38.60;33.60;;;;;;5048764;28;20448;-66
2023/05/26 12:01:46;;;;;;;7.43;6.83;;;36.90;34.00;;;;;;5051456;28;20498;-64
2023/05/26 12:04:12;;;;;;;8.90;7.37;;;37.40;34.60;;;;;;5050954;28;20562;-66
2023/05/26 12:06:43;;;;;;;10.83;8.10;;;36.90;34.70;;;;;;5051671;28;20507;-65
2023/05/26 12:09:17;;;;;;;7.87;7.17;;;37.40;34.40;;;;;;5051190;28;20256;-65
2023/05/26 12:11:46;;;;;;;8.27;7.47;;;37.50;34.50;;;;;;5050414;28;20435;-66
2023/05/26 12:14:13;;;;;;;8.17;7.27;;;39.10;33.60;;;;;;5051461;28;20462;-64
2023/05/26 12:16:44;;;;;;;8.50;6.87;;;39.10;33.00;;;;;;5049768;28;20463;-66
2023/05/26 12:19:11;;;;;;;7.30;6.60;;;38.40;33.50;;;;;;5049180;28;20439;-66
2023/05/26 12:21:59;;;;;;;8.40;7.60;;;39.60;32.50;;;;;;5050669;28;20452;-68
2023/05/26 12:24:29;;;;;;;9.67;8.87;;;39.90;31.90;;;;;;5051401;28;20514;-68
2023/05/26 12:26:55;;;;;;;9.70;8.73;;;37.90;33.80;;;;;;5051379;28;20469;-68
2023/05/26 12:29:20;;;;;;;10.03;9.00;;;38.00;33.30;;;;;;5050237;28;20428;-66
2023/05/26 12:31:53;;;;;;;7.77;7.10;;;38.40;33.00;;;;;;5051488;28;20174;-66
2023/05/26 12:34:20;;;;;;;8.23;7.57;;;39.30;32.40;;;;;;5036130;28;20731;-61
2023/05/26 12:36:46;;;;;;;9.40;8.40;;;39.00;32.60;;;;;;5056322;28;20436;-62
2023/05/26 12:39:16;;;;;;;9.97;8.07;;;38.90;32.90;;;;;;5068417;28;20427;-59
2023/05/26 12:41:42;;;;;;;8.27;6.53;;;36.80;33.40;;;;;;5055036;28;20470;-61
2023/05/26 12:44:09;;;;;;;8.27;7.53;;;36.50;34.60;;;;;;5055050;28;20446;-62